Rancho Santa Fe (307) Station Data

Red Flag Warning: No
Fire Weather Zone: 243
SDGE Region: North Coast
Lat/Lon: 33.033/-117.189

Observations

Time Wind Speed/Gust Temp(F) RH Fuel Moist Fuel Temp(F) Dewpt(F) Tmax(F) Tmin(F) Accum Precip 10-min Precip SL Press(mb)
4/26 2:40am 1 1 G 1 51° 90% - - 48° 54.7° 50.5° - - -
4/26 2:30am 353 1 G 1 51° 89% - - 48° 54.7° 50.7° - - -
4/26 2:20am 353 1 G 1 52° 88% - - 48° 54.7° 51° - - -
4/26 2:10am 4 1 G 1 52° 88% - - 48° 54.7° 51.3° - - -
4/26 2:00am 11 1 G 1 52° 88% - - 49° 54.7° 51.3° - - -
4/26 1:50am 3 1 G 1 52° 87% - - 48° 54.7° 51.3° - - -
4/26 1:40am 0 1 G 1 52° 86% - - 48° 54.7° 51.6° - - -
4/26 1:30am 356 1 G 1 53° 87% - - 49° 54.7° 51.7° - - -
4/26 1:20am 351 1 G 1 53° 86% - - 49° 54.7° 51.7° - - -
4/26 1:10am 33 1 G 1 52° 87% - - 48° 54.7° 51.7° - - -
4/26 1:00am 82 1 G 1 52° 86% - - 48° 54.7° 51.8° - - -
4/26 12:50am 152 1 G 1 53° 83% - - 48° 54.7° 52.2° - - -
4/26 12:40am 190 1 G 1 53° 84% - - 48° 54.7° 52.5° - - -
4/26 12:30am 191 1 G 1 53° 84% - - 49° 54.7° 52.8° - - -
4/26 12:20am 269 1 G 1 54° 83% - - 49° 54.7° 53.2° - - -
4/26 12:10am 263 1 G 1 54° 83% - - 49° 54.7° 53.4° - - -
4/26 12:00am 326 1 G 1 54° 83% - - 49° 67.8° 53.4° - - -
4/25 11:50pm 354 1 G 1 55° 82% - - 49° 67.8° 53.4° - - -
4/25 11:40pm 106 1 G 1 54° 85% - - 49° 67.8° 53.4° - - -
4/25 11:30pm 111 1 G 1 54° 85% - - 49° 67.8° 53.5° - - -
4/25 11:20pm 33 1 G 1 54° 84% - - 49° 67.8° 53.7° - - -
4/25 11:10pm 11 1 G 1 55° 82% - - 49° 67.8° 53.8° - - -
4/25 11:00pm 24 1 G 1 55° 82% - - 49° 67.8° 54.3° - - -
4/25 10:50pm 4 1 G 1 55° 81% - - 50° 67.8° 54.7° - - -
4/25 10:40pm 39 1 G 1 55° 82% - - 50° 67.8° 54.7° - - -
4/25 10:30pm 88 1 G 1 55° 81% - - 50° 67.8° 54.8° - - -
4/25 10:20pm 88 1 G 1 56° 81% - - 50° 67.8° 55.7° - - -
4/25 10:10pm 88 1 G 1 57° 80% - - 51° 67.8° 56° - - -
4/25 10:00pm 100 1 G 1 57° 79% - - 50° 67.8° 56.4° - - -
4/25 9:50pm 321 1 G 1 58° 75% - - 50° 67.8° 57° - - -
4/25 9:40pm 235 1 G 1 58° 78% - - 51° 67.8° 57.1° - - -
4/25 9:30pm 203 1 G 1 58° 77% - - 51° 67.8° 57.1° - - -
4/25 9:20pm 53 1 G 1 58° 76% - - 51° 67.8° 57.2° - - -
4/25 9:10pm 236 1 G 1 58° 76% - - 51° 67.8° 57.2° - - -
4/25 9:00pm 357 1 G 1 59° 75% - - 51° 67.8° 57.2° - - -
4/25 8:50pm 272 1 G 3 59° 74% - - 51° 67.8° 57.2° - - -
4/25 8:40pm 10 1 G 2 59° 74% - - 51° 67.8° 57.2° - - -
4/25 8:30pm 271 1 G 2 61° 70% - - 51° 67.8° 57.2° - - -
4/25 8:20pm 277 2 G 4 61° 71% - - 51° 67.8° 57.2° - - -
4/25 8:10pm 251 1 G 1 61° 71% - - 51° 67.8° 57.2° - - -
4/25 8:00pm 256 1 G 2 61° 69% - - 51° 67.8° 57.2° - - -
4/25 7:50pm 258 2 G 3 61° 69% - - 51° 67.8° 57.2° - - -
4/25 7:40pm 208 1 G 2 61° 68% - - 51° 67.8° 57.2° - - -
4/25 7:30pm 238 1 G 2 62° 65% - - 50° 67.8° 57.2° - - -
4/25 7:20pm 247 1 G 2 63° 63% - - 50° 67.8° 57.2° - - -
4/25 7:10pm 250 2 G 3 63° 59% - - 48° 67.8° 57.2° - - -
4/25 7:00pm 242 1 G 3 63° 58% - - 48° 67.8° 57.2° - - -
4/25 6:50pm 246 1 G 3 63° 59% - - 49° 67.8° 57.2° - - -
4/25 6:40pm 230 2 G 5 63° 58% - - 49° 67.8° 57.2° - - -
4/25 6:30pm 261 3 G 7 64° 58% - - 49° 67.8° 57.2° - - -
4/25 6:20pm 258 4 G 8 64° 59% - - 49° 67.8° 57.2° - - -
4/25 6:10pm 289 3 G 7 64° 62% - - 51° 67.8° 57.2° - - -
4/25 6:00pm 243 3 G 7 64° 60% - - 50° 67.8° 57.2° - - -
4/25 5:50pm 257 4 G 8 64° 58% - - 49° 67.8° 57.2° - - -
4/25 5:40pm 244 4 G 8 65° 57% - - 49° 67.8° 57.2° - - -
4/25 5:30pm 261 4 G 10 65° 57% - - 49° 67.8° 57.2° - - -
4/25 5:20pm 257 6 G 10 65° 59% - - 50° 67.8° 57.2° - - -
4/25 5:10pm 249 7 G 11 65° 59% - - 50° 67.8° 57.2° - - -
4/25 5:00pm 252 7 G 13 65° 58% - - 50° 67.8° 57.2° - - -
4/25 4:50pm 270 4 G 10 65° 58% - - 50° 67.8° 57.2° - - -
4/25 4:40pm 275 5 G 11 65° 59% - - 50° 67.8° 57.2° - - -
4/25 4:30pm 278 5 G 10 65° 56% - - 49° 67.8° 57.2° - - -
4/25 4:20pm 294 4 G 11 66° 54% - - 49° 67.8° 57.2° - - -
4/25 4:10pm 295 5 G 11 66° 54% - - 49° 67.8° 57.2° - - -
4/25 4:00pm 258 4 G 9 66° 55% - - 49° 67.8° 57.2° - - -
4/25 3:50pm 284 5 G 10 66° 56% - - 50° 67.8° 57.2° - - -
4/25 3:40pm 254 6 G 11 66° 58% - - 51° 67.8° 57.2° - - -
4/25 3:30pm 261 5 G 9 66° 59% - - 52° 67.8° 57.2° - - -
4/25 3:20pm 279 5 G 12 67° 61% - - 53° 67.8° 57.2° - - -
4/25 3:10pm 238 7 G 11 66° 64% - - 53° 67.8° 57.2° - - -
4/25 3:00pm 253 8 G 12 65° 64% - - 52° 67.8° 57.2° - - -
4/25 2:50pm 247 8 G 15 65° 65% - - 53° 67.8° 57.2° - - -
4/25 2:40pm 235 6 G 12 66° 62% - - 52° 67.8° 57.2° - - -
4/25 2:30pm 244 6 G 13 66° 59% - - 52° 67.8° 57.2° - - -
4/25 2:20pm 261 6 G 13 66° 59% - - 52° 67.8° 57.2° - - -
4/25 2:10pm 244 5 G 12 66° 58% - - 51° 67.8° 57.2° - - -
4/25 2:00pm 239 6 G 15 67° 60% - - 52° 67.8° 57.2° - - -
4/25 1:50pm 245 7 G 13 66° 59% - - 52° 67.6° 57.2° - - -
4/25 1:40pm 249 7 G 13 66° 61% - - 53° 67.6° 57.2° - - -
4/25 1:30pm 260 7 G 13 66° 63% - - 53° 67.3° 57.2° - - -
4/25 1:20pm 242 7 G 14 66° 65% - - 54° 67.3° 57.2° - - -
4/25 1:10pm 244 9 G 17 65° 65% - - 53° 67.2° 57.2° - - -
4/25 1:00pm 235 9 G 16 65° 64% - - 53° 67.2° 57.2° - - -
4/25 12:50pm 260 8 G 14 66° 63% - - 53° 67.2° 57.2° - - -
4/25 12:40pm 248 8 G 15 66° 62% - - 53° 67.2° 57.2° - - -
4/25 12:30pm 254 7 G 13 66° 66% - - 54° 67.2° 57.2° - - -
4/25 12:20pm 252 8 G 15 66° 65% - - 54° 67.1° 57.2° - - -
4/25 12:10pm 243 6 G 12 66° 64% - - 53° 67.1° 57.2° - - -
4/25 12:00pm 244 8 G 13 65° 64% - - 53° 67.1° 57.2° - - -
4/25 11:50am 257 7 G 11 66° 64% - - 53° 67.1° 57.2° - - -
4/25 11:40am 230 7 G 11 66° 64% - - 53° 67.1° 57.2° - - -
4/25 11:30am 245 6 G 12 66° 65% - - 53° 66.7° 57.2° - - -
4/25 11:20am 260 7 G 12 65° 66% - - 53° 66.3° 57.2° - - -
4/25 11:10am 239 5 G 10 64° 67% - - 54° 66.3° 57.2° - - -
4/25 11:00am 220 5 G 9 65° 66% - - 54° 66.3° 57.2° - - -
4/25 10:50am 241 6 G 12 64° 69% - - 54° 66.3° 57.2° - - -
4/25 10:40am 212 6 G 10 65° 67% - - 54° 66.3° 57.2° - - -
4/25 10:30am 218 6 G 12 65° 69% - - 54° 65.9° 57.2° - - -
4/25 10:20am 205 6 G 10 65° 68% - - 54° 65.9° 57.2° - - -
4/25 10:10am 191 4 G 8 64° 69% - - 54° 65.7° 57.2° - - -
4/25 10:00am 227 5 G 8 64° 70% - - 54° 65° 57.2° - - -
4/25 9:50am 208 5 G 14 64° 72% - - 55° 64.8° 57.2° - - -
4/25 9:40am 227 6 G 13 63° 75% - - 55° 64.3° 57.2° - - -
4/25 9:30am 230 7 G 13 62° 77% - - 55° 64.3° 57.2° - - -
4/25 9:20am 221 7 G 12 63° 75% - - 54° 64.3° 57.2° - - -
4/25 9:10am 208 4 G 8 63° 71% - - 54° 64.2° 57.2° - - -
4/25 9:00am 193 4 G 8 63° 72% - - 54° 63.7° 57.2° - - -
4/25 8:50am 174 3 G 8 62° 75% - - 54° 62.9° 57.2° - - -
4/25 8:40am 189 3 G 8 61° 77% - - 54° 62.1° 57.2° - - -
4/25 8:30am 197 4 G 8 61° 79% - - 55° 62° 57.2° - - -
4/25 8:20am 182 4 G 9 61° 79% - - 55° 62° 57.2° - - -
4/25 8:10am 178 3 G 7 61° 80% - - 54° 61.3° 57.2° - - -
4/25 8:00am 171 1 G 5 60° 81% - - 54° 60.9° 57.2° - - -
4/25 7:50am 161 1 G 4 60° 82% - - 54° 60.4° 57.2° - - -
4/25 7:40am 126 1 G 3 59° 84% - - 54° 59.9° 57.2° - - -
4/25 7:30am 114 1 G 3 59° 84% - - 54° 59.9° 57.2° - - -
4/25 7:20am 117 1 G 2 59° 84% - - 54° 59.9° 57.2° - - -
4/25 7:10am 85 1 G 3 58° 85% - - 54° 59.9° 57.2° - - -
4/25 7:00am 77 1 G 3 58° 85% - - 54° 59.9° 57.2° - - -
4/25 6:50am 81 1 G 4 58° 85% - - 53° 59.9° 57.2° - - -
4/25 6:40am 99 2 G 4 58° 86% - - 53° 59.9° 57.2° - - -
4/25 6:30am 92 2 G 5 58° 85% - - 53° 59.9° 57.2° - - -
4/25 6:20am 109 1 G 5 58° 85% - - 53° 59.9° 57.2° - - -
4/25 6:10am 126 1 G 4 58° 84% - - 53° 59.9° 57.2° - - -
4/25 6:00am 117 1 G 2 58° 84% - - 53° 59.9° 57.2° - - -
4/25 5:50am 146 1 G 3 58° 84% - - 53° 59.9° 57.2° - - -
4/25 5:40am 135 1 G 2 58° 84% - - 53° 59.9° 57.2° - - -
4/25 5:30am 140 1 G 1 58° 84% - - 53° 59.9° 57.4° - - -
4/25 5:20am 115 1 G 2 58° 83% - - 53° 59.9° 57.5° - - -
4/25 5:10am 96 1 G 2 58° 83% - - 53° 59.9° 57.5° - - -
4/25 5:00am 99 1 G 3 58° 82% - - 53° 59.9° 57.5° - - -
4/25 4:50am 92 1 G 2 58° 82% - - 53° 59.9° 57.5° - - -
4/25 4:40am 89 2 G 4 58° 82% - - 53° 59.9° 57.5° - - -
4/25 4:30am 107 1 G 4 58° 82% - - 53° 59.9° 57.5° - - -
4/25 4:20am 134 2 G 5 58° 82% - - 53° 59.9° 57.5° - - -
4/25 4:10am 141 1 G 5 58° 81% - - 52° 59.9° 57.5° - - -
4/25 4:00am 142 1 G 3 58° 80% - - 52° 59.9° 57.6° - - -
4/25 3:50am 139 1 G 4 58° 80% - - 52° 59.9° 57.6° - - -
4/25 3:40am 117 1 G 2 58° 79% - - 52° 59.9° 57.6° - - -
4/25 3:30am 100 1 G 1 58° 79% - - 52° 59.9° 57.6° - - -
4/25 3:20am 97 1 G 3 58° 79% - - 52° 59.9° 57.6° - - -
4/25 3:10am 104 1 G 4 58° 79% - - 52° 59.9° 57.6° - - -
4/25 3:00am 120 1 G 2 58° 80% - - 52° 59.9° 57.6° - - -
4/25 2:50am 135 1 G 2 58° 80% - - 52° 59.9° 57.6° - - -
4/25 2:40am 79 1 G 1 58° 80% - - 52° 59.9° 57.7° - - -
4/25 2:30am 93 1 G 1 58° 80% - - 52° 59.9° 57.7° - - -
4/25 2:20am 94 1 G 1 58° 80% - - 52° 59.9° 57.7° - - -
4/25 2:10am 197 1 G 2 58° 80% - - 52° 59.9° 57.7° - - -
4/25 2:00am 151 1 G 4 58° 80% - - 52° 59.9° 57.9° - - -
4/25 1:50am 155 1 G 6 58° 80% - - 52° 59.9° 57.9° - - -
4/25 1:40am 161 1 G 3 59° 80% - - 53° 59.9° 58.2° - - -
4/25 1:30am 184 2 G 5 59° 80% - - 53° 59.9° 58.3° - - -
4/25 1:20am 198 2 G 5 59° 80% - - 53° 59.9° 58.3° - - -
4/25 1:10am 211 2 G 4 59° 80% - - 53° 59.9° 58.3° - - -
4/25 1:00am 216 2 G 5 59° 80% - - 53° 59.9° 58.3° - - -
4/25 12:50am 209 1 G 3 59° 80% - - 53° 59.9° 58.3° - - -
4/25 12:40am 191 1 G 4 59° 80% - - 53° 59.8° 58.3° - - -
4/25 12:30am 191 1 G 2 59° 80% - - 53° 59.7° 58.3° - - -
4/25 12:20am 130 1 G 5 59° 81% - - 53° 59.6° 58.3° - - -
4/25 12:10am 135 1 G 3 59° 81% - - 53° 59.4° 58.3° - - -
4/25 12:00am 139 1 G 5 59° 82% - - 53° 66.9° 58.2° - - -
4/24 11:50pm 120 2 G 5 59° 82% - - 53° 66.9° 58.2° - - -
4/24 11:40pm 126 3 G 6 59° 81% - - 53° 66.9° 58.2° - - -
4/24 11:30pm 110 1 G 4 59° 80% - - 53° 66.9° 58.2° - - -
4/24 11:20pm 96 1 G 1 59° 80% - - 53° 66.9° 58.2° - - -
4/24 11:10pm 260 1 G 1 59° 80% - - 53° 66.9° 58.2° - - -
4/24 11:00pm 252 1 G 3 59° 80% - - 53° 66.9° 58.2° - - -
4/24 10:50pm 223 1 G 3 59° 80% - - 53° 66.9° 58.2° - - -
4/24 10:40pm 219 2 G 6 59° 79% - - 53° 66.9° 58.2° - - -
4/24 10:30pm 214 2 G 5 59° 80% - - 53° 66.9° 58.2° - - -
4/24 10:20pm 222 3 G 6 59° 81% - - 53° 66.9° 58.2° - - -
4/24 10:10pm 219 1 G 4 59° 82% - - 53° 66.9° 58.2° - - -
4/24 10:00pm 208 1 G 4 59° 83% - - 54° 66.9° 58.3° - - -
4/24 9:50pm 225 1 G 1 59° 83% - - 54° 66.9° 58.3° - - -
4/24 9:40pm 214 1 G 2 59° 84% - - 54° 66.9° 58.3° - - -
4/24 9:30pm 203 1 G 3 59° 84% - - 54° 66.9° 58.3° - - -
4/24 9:20pm 220 1 G 2 59° 83% - - 54° 66.9° 58.5° - - -
4/24 9:10pm 214 1 G 3 59° 83% - - 54° 66.9° 58.6° - - -
4/24 9:00pm 210 2 G 4 60° 83% - - 54° 66.9° 58.8° - - -
4/24 8:50pm 234 3 G 5 60° 83% - - 54° 66.9° 58.8° - - -
4/24 8:40pm 233 3 G 5 60° 83% - - 55° 66.9° 58.8° - - -
4/24 8:30pm 238 2 G 5 60° 83% - - 55° 66.9° 58.8° - - -
4/24 8:20pm 234 2 G 4 60° 83% - - 55° 66.9° 58.8° - - -
4/24 8:10pm 252 4 G 6 60° 83% - - 55° 66.9° 58.8° - - -
4/24 8:00pm 237 4 G 6 61° 81% - - 55° 66.9° 58.8° - - -
4/24 7:50pm 250 3 G 5 61° 79% - - 54° 66.9° 58.8° - - -
4/24 7:40pm 226 3 G 6 61° 79% - - 54° 66.9° 58.8° - - -
4/24 7:30pm 232 4 G 7 61° 78% - - 54° 66.9° 58.8° - - -
4/24 7:20pm 249 4 G 7 61° 79% - - 54° 66.9° 58.8° - - -
4/24 7:10pm 237 4 G 7 61° 79% - - 55° 66.9° 58.8° - - -
4/24 7:00pm 229 4 G 9 61° 79% - - 55° 66.9° 58.8° - - -
4/24 6:50pm 244 5 G 8 61° 78% - - 54° 66.9° 58.8° - - -
4/24 6:40pm 241 5 G 9 62° 76% - - 54° 66.9° 58.8° - - -
4/24 6:30pm 240 6 G 10 62° 77% - - 55° 66.9° 58.8° - - -
4/24 6:20pm 238 4 G 10 62° 78% - - 55° 66.9° 58.8° - - -
4/24 6:10pm 226 5 G 10 62° 78% - - 55° 66.9° 58.8° - - -
4/24 6:00pm 229 5 G 11 62° 78% - - 55° 66.9° 58.8° - - -